Time;durP1;ratioP1;P1;durP2;ratioP2;P2;SDS_P1;SDS_P2;PMS_P1;PMS_P2;Temp;Humidity;BMP_temperature;BMP_pressure;BME280_temperature;BME280_humidity;BME280_pressure;Samples;Min_cycle;Max_cycle;Signal;HPM_P1;HPM_P2
2023/06/07 00:00:29;;;;;;;2.88;1.83;;;16.30;96.90;;;16.76;100.00;100300.75;4908228;29;20239;-75
2023/06/07 00:02:56;;;;;;;2.90;2.08;;;16.40;96.90;;;16.75;100.00;100312.34;4893252;29;20248;-75
2023/06/07 00:05:24;;;;;;;2.60;1.60;;;16.40;96.80;;;16.81;100.00;100320.25;4893507;29;20239;-75
2023/06/07 00:07:51;;;;;;;3.65;2.13;;;16.40;97.10;;;16.75;100.00;100324.81;4889458;29;20232;-75
2023/06/07 00:10:18;;;;;;;3.30;2.00;;;16.30;97.10;;;16.64;100.00;100314.28;4893295;29;20242;-74
2023/06/07 00:12:45;;;;;;;3.58;2.17;;;16.30;97.00;;;16.62;100.00;100330.34;4892587;29;20707;-75
2023/06/07 00:15:12;;;;;;;2.72;1.73;;;16.20;97.40;;;16.59;100.00;100351.75;4891408;29;20236;-74
2023/06/07 00:17:40;;;;;;;1.85;1.13;;;16.20;98.10;;;16.44;100.00;100349.34;4894608;29;20235;-75
2023/06/07 00:20:09;;;;;;;2.85;1.60;;;16.10;97.70;;;16.57;100.00;100390.94;4907294;29;20701;-75
2023/06/07 00:22:37;;;;;;;2.45;1.40;;;16.20;98.20;;;16.59;100.00;100390.91;4895607;29;20239;-75
2023/06/07 00:25:06;;;;;;;3.92;2.30;;;16.20;98.00;;;16.48;100.00;100393.75;4891992;29;20267;-75
2023/06/07 00:27:33;;;;;;;2.55;1.42;;;16.10;98.20;;;16.42;100.00;100390.28;4894898;29;20311;-75
2023/06/07 00:30:03;;;;;;;2.13;1.40;;;16.10;98.30;;;16.46;100.00;100392.91;4893643;29;20239;-75
2023/06/07 00:32:31;;;;;;;2.22;1.30;;;16.10;98.20;;;16.38;100.00;100399.25;4892000;29;20247;-75
2023/06/07 00:34:58;;;;;;;2.80;1.70;;;16.00;98.50;;;16.42;100.00;100398.31;4894041;29;20266;-75
2023/06/07 00:37:25;;;;;;;2.40;1.42;;;16.00;98.10;;;16.35;100.00;100423.31;4893232;29;20235;-75
2023/06/07 00:39:52;;;;;;;3.00;1.73;;;16.00;99.00;;;16.41;100.00;100431.25;4894326;29;20236;-75
2023/06/07 00:42:19;;;;;;;3.88;2.33;;;16.00;98.90;;;16.40;100.00;100434.81;4893082;29;20244;-75
2023/06/07 00:44:46;;;;;;;2.55;1.58;;;16.00;99.10;;;16.32;100.00;100440.25;4894317;29;20232;-75
2023/06/07 00:47:14;;;;;;;2.30;1.77;;;15.90;99.20;;;16.27;100.00;100466.13;4891070;29;20322;-75
2023/06/07 00:49:43;;;;;;;2.42;1.48;;;15.90;99.80;;;16.35;100.00;100476.69;4893348;29;20272;-75
2023/06/07 00:52:12;;;;;;;2.47;1.38;;;15.90;99.70;;;16.39;100.00;100468.63;4891644;29;20232;-75
2023/06/07 00:54:40;;;;;;;1.67;1.17;;;15.90;99.50;;;16.30;100.00;100468.75;4893419;29;20250;-75
2023/06/07 00:57:07;;;;;;;2.97;1.70;;;15.90;99.60;;;16.24;100.00;100459.06;4892016;29;20240;-75
2023/06/07 00:59:37;;;;;;;1.77;1.20;;;15.90;99.50;;;15.93;100.00;100479.91;4893082;29;20240;-75
2023/06/07 01:02:06;;;;;;;3.28;1.80;;;15.80;99.90;;;15.90;100.00;100505.72;4889778;29;20250;-75
2023/06/07 01:04:34;;;;;;;2.35;1.52;;;15.50;99.90;;;15.92;100.00;100528.81;4891985;29;20247;-75
2023/06/07 01:07:02;;;;;;;2.05;1.30;;;15.60;99.90;;;15.93;100.00;100521.69;4905388;29;20231;-75
2023/06/07 01:09:30;;;;;;;2.50;1.50;;;15.60;99.90;;;15.85;100.00;100534.25;4892269;29;20261;-75
2023/06/07 01:11:57;;;;;;;2.78;1.60;;;15.50;99.90;;;15.79;100.00;100548.50;4890235;29;20247;-74
2023/06/07 01:14:25;;;;;;;3.38;1.90;;;15.50;99.90;;;15.77;100.00;100554.75;4892662;29;20255;-74
2023/06/07 01:16:53;;;;;;;2.08;1.38;;;15.40;99.90;;;15.69;100.00;100565.50;4887490;29;20244;-74
2023/06/07 01:19:30;;;;;;;2.47;1.63;;;15.40;99.90;;;15.73;100.00;100577.03;4891308;29;20232;-74
2023/06/07 01:22:04;;;;;;;2.80;1.55;;;15.40;99.90;;;15.80;100.00;100576.06;4889983;29;20704;-74
2023/06/07 01:24:35;;;;;;;2.28;1.55;;;15.40;99.90;;;15.79;100.00;100555.63;4889379;29;20239;-75
2023/06/07 01:27:07;;;;;;;3.10;1.83;;;15.40;99.90;;;15.78;100.00;100557.41;4887869;29;20242;-74
2023/06/07 01:29:35;;;;;;;2.67;1.75;;;15.40;99.90;;;15.70;100.00;100561.06;4891316;29;20236;-75
2023/06/07 01:32:09;;;;;;;1.60;1.10;;;15.30;99.90;;;15.61;100.00;100576.25;4899015;29;20236;-74
2023/06/07 01:34:37;;;;;;;2.55;1.75;;;15.30;99.90;;;15.67;100.00;100585.97;4893509;29;20258;-74
2023/06/07 01:37:05;;;;;;;2.30;1.45;;;15.30;99.90;;;15.59;100.00;100580.69;4889752;29;20236;-74
2023/06/07 01:39:37;;;;;;;2.15;1.35;;;15.20;99.90;;;15.51;100.00;100587.81;4892515;29;20236;-75
2023/06/07 01:42:06;;;;;;;2.60;1.60;;;15.20;99.90;;;15.39;100.00;100598.59;4890147;29;20236;-74
2023/06/07 01:44:34;;;;;;;8.77;4.82;;;15.10;99.90;;;15.43;100.00;100621.66;4877844;29;20243;-75
2023/06/07 01:47:01;;;;;;;2.50;1.40;;;15.10;99.90;;;15.36;100.00;100635.91;4889814;29;20239;-75
2023/06/07 01:49:28;;;;;;;5.35;3.00;;;15.00;99.90;;;15.30;100.00;100627.97;4885478;29;20228;-74
2023/06/07 01:51:55;;;;;;;3.28;1.80;;;15.00;99.90;;;15.11;100.00;100635.19;4889938;29;20247;-75
2023/06/07 01:54:23;;;;;;;3.05;1.90;;;14.90;99.90;;;15.24;100.00;100674.19;4902679;29;20607;-75
2023/06/07 01:56:57;;;;;;;2.70;1.58;;;14.80;99.90;;;15.26;100.00;100666.19;4890593;29;20235;-75
2023/06/07 01:59:42;;;;;;;3.13;1.70;;;14.80;99.90;;;15.25;100.00;100680.41;4889394;29;20243;-75
2023/06/07 02:02:20;;;;;;;2.60;1.58;;;14.90;99.90;;;15.18;100.00;100682.22;4889689;29;20232;-75
2023/06/07 02:04:54;;;;;;;4.10;2.22;;;14.80;99.90;;;15.08;100.00;100675.16;4902465;29;20236;-75
2023/06/07 02:07:27;;;;;;;2.63;1.52;;;14.70;99.90;;;15.15;100.00;100682.22;4889337;29;20321;-75
2023/06/07 02:09:57;;;;;;;3.85;2.13;;;14.80;99.90;;;15.21;100.00;100694.63;4889341;29;20251;-75
2023/06/07 02:12:24;;;;;;;2.78;1.52;;;14.80;99.90;;;15.34;100.00;100689.22;4889948;29;20239;-75
2023/06/07 02:14:52;;;;;;;2.92;1.67;;;14.90;99.90;;;15.27;100.00;100666.19;4889084;29;20236;-75
2023/06/07 02:17:20;;;;;;;2.17;1.40;;;15.00;99.90;;;15.33;100.00;100662.59;4889297;29;20267;-75
2023/06/07 02:19:47;;;;;;;2.25;1.40;;;15.00;99.90;;;15.31;100.00;100670.59;4892455;29;20238;-75
2023/06/07 02:22:15;;;;;;;2.58;1.63;;;15.00;99.90;;;15.20;100.00;100667.09;4894574;29;20246;-75
2023/06/07 02:24:42;;;;;;;3.15;1.83;;;14.90;99.90;;;15.29;100.00;100674.16;4893769;29;20243;-75
2023/06/07 02:27:09;;;;;;;2.92;1.48;;;14.90;99.90;;;15.32;100.00;100682.13;4888099;29;20318;-75
2023/06/07 02:29:36;;;;;;;1.77;1.20;;;14.90;99.90;;;15.19;100.00;100697.31;4895413;29;20250;-75
2023/06/07 02:32:04;;;;;;;2.55;1.48;;;14.80;99.90;;;15.03;100.00;100707.16;4890643;29;20246;-75
2023/06/07 02:34:32;;;;;;;3.60;1.88;;;14.70;99.90;;;14.94;100.00;100720.50;4892035;29;20248;-75
2023/06/07 02:37:00;;;;;;;5.03;1.83;;;;;;;15.01;100.00;100721.38;4890854;29;20243;-75
2023/06/07 02:39:28;;;;;;;4.10;2.15;;;14.70;99.90;;;15.16;100.00;100715.09;4889872;29;20247;-75
2023/06/07 02:41:55;;;;;;;2.10;1.35;;;14.70;99.90;;;15.26;100.00;100699.03;4889922;29;20291;-75
2023/06/07 02:44:22;;;;;;;1.58;1.00;;;14.80;99.90;;;15.25;100.00;100707.94;4897281;28;20708;-74
2023/06/07 02:46:49;;;;;;;1.60;1.02;;;14.80;99.90;;;15.20;100.00;100696.41;4894988;29;20240;-74
2023/06/07 02:49:17;;;;;;;1.63;1.10;;;14.80;99.90;;;15.08;100.00;100707.13;4908077;29;20287;-75
2023/06/07 02:51:44;;;;;;;2.08;1.33;;;;;;;15.14;100.00;100712.44;4890756;29;20298;-74
2023/06/07 02:54:13;;;;;;;1.55;1.25;;;14.80;99.90;;;15.18;100.00;100731.94;4887854;29;20291;-74
2023/06/07 02:56:40;;;;;;;1.65;1.05;;;14.80;99.90;;;14.95;100.00;100750.69;4892043;29;20231;-75
2023/06/07 02:59:08;;;;;;;2.92;1.77;;;14.70;99.90;;;14.87;100.00;100761.38;4887983;29;20598;-74
2023/06/07 03:01:37;;;;;;;2.60;1.70;;;14.60;99.90;;;14.80;100.00;100788.91;4886630;29;20241;-74
2023/06/07 03:04:05;;;;;;;0.98;0.88;;;14.50;99.90;;;14.73;100.00;100804.00;4885734;29;20326;-75
2023/06/07 03:06:33;;;;;;;1.73;1.08;;;14.40;99.90;;;14.62;100.00;100800.50;4892745;29;20241;-74
2023/06/07 03:09:00;;;;;;;1.63;1.08;;;14.30;99.90;;;14.35;100.00;100800.50;4907514;29;20260;-74
2023/06/07 03:11:27;;;;;;;1.80;0.98;;;14.20;99.90;;;14.16;100.00;100804.88;4893083;29;20276;-74
2023/06/07 03:13:54;;;;;;;1.67;0.95;;;14.00;99.90;;;14.12;100.00;100820.84;4893111;29;20239;-74
2023/06/07 03:16:22;;;;;;;1.27;0.82;;;13.90;99.90;;;14.15;100.00;100837.69;4891539;29;20248;-74
2023/06/07 03:18:49;;;;;;;2.75;1.58;;;13.80;99.90;;;14.10;100.00;100839.47;4894869;29;20304;-75
2023/06/07 03:21:17;;;;;;;1.92;1.00;;;13.80;99.90;;;13.99;100.00;100867.81;4892487;29;20240;-74
2023/06/07 03:23:45;;;;;;;2.22;1.35;;;13.80;99.90;;;13.76;100.00;100870.41;4890293;29;20255;-74
2023/06/07 03:26:12;;;;;;;2.30;1.30;;;13.60;99.90;;;13.65;100.00;100890.75;4891435;29;20653;-75
2023/06/07 03:28:39;;;;;;;3.28;1.75;;;13.50;99.90;;;13.53;100.00;100910.19;4892741;29;20239;-74
2023/06/07 03:31:07;;;;;;;2.33;1.30;;;13.30;99.90;;;13.70;100.00;100936.84;4896192;29;20311;-75
2023/06/07 03:33:34;;;;;;;2.15;1.30;;;13.30;99.90;;;13.64;100.00;100948.34;4903166;29;20251;-75
2023/06/07 03:36:01;;;;;;;1.95;1.20;;;13.40;99.90;;;13.19;100.00;100951.63;4898564;29;20243;-74
2023/06/07 03:38:29;;;;;;;2.60;1.58;;;12.60;99.90;;;13.27;100.00;100967.63;4880371;29;20236;-75
2023/06/07 03:40:56;;;;;;;3.60;1.73;;;13.10;99.90;;;13.10;100.00;100964.81;4896771;29;20232;-74
2023/06/07 03:43:23;;;;;;;2.53;1.40;;;13.00;99.90;;;13.24;100.00;100978.22;4893303;29;20242;-74
2023/06/07 03:45:51;;;;;;;2.20;1.35;;;13.00;99.90;;;13.34;100.00;100974.75;4880292;29;20236;-74
2023/06/07 03:48:18;;;;;;;5.50;2.83;;;13.00;99.90;;;13.28;100.00;100983.56;4893360;29;20697;-75
2023/06/07 03:50:46;;;;;;;2.88;1.75;;;12.90;99.90;;;13.22;100.00;101003.88;4892455;29;20232;-75
2023/06/07 03:53:13;;;;;;;1.42;1.00;;;13.00;99.90;;;13.36;100.00;101003.09;4889960;29;20307;-74
2023/06/07 03:55:41;;;;;;;3.05;1.70;;;13.10;99.90;;;13.31;100.00;101007.50;4895695;29;20723;-74
2023/06/07 03:58:09;;;;;;;2.25;1.27;;;13.00;99.90;;;13.37;100.00;101018.16;4898107;29;20248;-74
2023/06/07 04:00:36;;;;;;;1.20;0.88;;;13.10;99.90;;;13.44;100.00;101025.28;4897448;29;20232;-75
2023/06/07 04:03:04;;;;;;;2.03;1.30;;;13.20;99.90;;;13.39;100.00;101026.13;4894644;29;20259;-75
2023/06/07 04:05:31;;;;;;;1.92;1.20;;;13.20;99.90;;;13.48;100.00;101038.59;4892801;29;20331;-75
2023/06/07 04:07:59;;;;;;;1.52;1.00;;;13.10;99.90;;;13.56;100.00;101032.44;4912919;29;20239;-75
2023/06/07 04:10:26;;;;;;;1.88;1.25;;;13.20;99.90;;;13.38;100.00;101027.00;4896683;29;20288;-75
2023/06/07 04:12:53;;;;;;;3.05;1.85;;;13.20;99.90;;;13.30;100.00;101037.59;4896486;29;20248;-75
2023/06/07 04:15:20;;;;;;;2.47;1.50;;;13.10;99.90;;;13.29;100.00;101056.16;4896321;29;20229;-75
2023/06/07 04:17:47;;;;;;;2.45;1.50;;;13.00;99.90;;;13.22;100.00;101054.34;4909399;29;20242;-75
2023/06/07 04:20:15;;;;;;;2.63;1.60;;;13.00;99.90;;;13.44;100.00;101061.59;4891718;29;20231;-75
2023/06/07 04:22:42;;;;;;;2.28;1.50;;;13.00;99.90;;;13.66;100.00;101060.88;4900245;29;20227;-75
2023/06/07 04:25:10;;;;;;;2.80;1.63;;;13.20;99.90;;;13.71;100.00;101069.75;4892623;29;20235;-75
2023/06/07 04:27:38;;;;;;;2.95;1.63;;;13.30;99.90;;;13.66;100.00;101086.56;4890743;29;20242;-75
2023/06/07 04:30:08;;;;;;;2.92;1.77;;;13.30;99.90;;;13.68;100.00;101074.16;4889977;29;20251;-75
2023/06/07 04:32:37;;;;;;;3.25;1.92;;;13.30;99.90;;;13.82;100.00;101052.97;4911362;29;20232;-75
2023/06/07 04:35:05;;;;;;;2.25;1.50;;;13.40;99.90;;;13.90;100.00;101060.13;4894229;29;20375;-75
2023/06/07 04:37:32;;;;;;;0.30;0.30;;;13.50;99.90;;;13.94;100.00;101071.66;4905454;29;20239;-75
2023/06/07 04:40:00;;;;;;;0.20;0.20;;;13.60;99.90;;;13.94;100.00;101069.88;4886968;29;20244;-76
2023/06/07 04:42:27;;;;;;;0.20;0.20;;;13.50;99.90;;;14.02;100.00;101030.03;4891235;29;20239;-75
2023/06/07 04:44:54;;;;;;;0.10;0.10;;;13.60;99.90;;;14.14;100.00;101010.59;4894577;29;20247;-77
2023/06/07 04:47:24;;;;;;;0.10;0.10;;;13.70;99.90;;;14.24;100.00;101012.38;4896047;29;20228;-77
2023/06/07 04:49:53;;;;;;;0.15;0.15;;;;;;;14.32;100.00;100997.38;4893851;29;20240;-77
2023/06/07 04:52:20;;;;;;;0.10;0.10;;;;;;;14.38;100.00;101010.69;4890786;29;20244;-76
2023/06/07 04:54:47;;;;;;;0.20;0.20;;;14.00;99.90;;;14.43;100.00;101008.97;4900414;29;20299;-76
2023/06/07 04:57:14;;;;;;;0.28;0.28;;;14.00;99.90;;;14.47;100.00;101008.09;4891727;29;20236;-76
2023/06/07 04:59:44;;;;;;;0.20;0.20;;;14.00;99.90;;;14.55;100.00;100993.03;4894602;29;20235;-76
2023/06/07 05:02:11;;;;;;;0.32;0.32;;;14.10;99.90;;;14.72;100.00;101001.03;4890157;29;20260;-78
2023/06/07 05:04:39;;;;;;;0.10;0.10;;;14.20;99.90;;;14.93;100.00;100974.41;4893781;29;20254;-77
2023/06/07 05:07:07;;;;;;;0.10;0.10;;;14.40;99.90;;;14.86;100.00;100977.06;4891907;29;20232;-76
2023/06/07 05:09:34;;;;;;;0.10;0.10;;;14.40;99.90;;;14.94;100.00;100964.66;4894946;29;20282;-77
2023/06/07 05:12:03;;;;;;;0.30;0.30;;;14.50;99.90;;;15.02;100.00;100960.19;4895567;29;20231;-77
2023/06/07 05:14:30;;;;;;;0.10;0.10;;;14.60;99.90;;;14.99;100.00;100962.88;4889701;29;20236;-75
2023/06/07 05:16:59;;;;;;;0.10;0.10;;;14.60;99.90;;;15.14;100.00;100968.19;4898221;29;20241;-76
2023/06/07 05:19:28;;;;;;;0.45;0.45;;;14.70;99.90;;;15.26;100.00;100951.28;4894374;29;20235;-75
2023/06/07 05:21:55;;;;;;;0.20;0.20;;;14.70;99.90;;;15.51;100.00;100965.44;4889932;29;20242;-76
2023/06/07 05:24:23;;;;;;;0.30;0.30;;;15.00;99.90;;;15.61;100.00;100936.16;4894760;29;20618;-74
2023/06/07 05:26:51;;;;;;;0.20;0.20;;;15.10;99.90;;;15.73;100.00;100929.88;4895296;29;20231;-74
2023/06/07 05:29:18;;;;;;;0.15;0.15;;;15.30;99.90;;;15.74;100.00;100905.00;4891045;29;20267;-74
2023/06/07 05:31:46;;;;;;;0.10;0.10;;;15.30;99.90;;;15.87;100.00;100911.16;4908721;29;20239;-74
2023/06/07 05:34:13;;;;;;;0.10;0.10;;;15.40;99.90;;;16.25;100.00;100950.97;4894068;29;20316;-74
2023/06/07 05:36:42;;;;;;;0.10;0.10;;;15.70;99.90;;;16.20;100.00;100908.28;4892628;29;20593;-74
2023/06/07 05:39:10;;;;;;;0.57;0.57;;;15.70;99.90;;;16.37;100.00;100913.50;4893471;29;20330;-74
2023/06/07 05:41:38;;;;;;;0.10;0.10;;;15.90;99.90;;;16.57;100.00;100918.69;4898470;29;20236;-74
2023/06/07 05:44:06;;;;;;;0.15;0.15;;;16.00;99.90;;;16.67;100.00;100901.75;4893781;29;20231;-72
2023/06/07 05:46:34;;;;;;;0.20;0.20;;;16.10;99.90;;;16.69;100.00;100880.38;4892109;29;20231;-72
2023/06/07 05:49:03;;;;;;;0.57;0.57;;;16.20;99.90;;;16.70;100.00;100861.66;4875548;29;20555;-74
2023/06/07 05:51:31;;;;;;;0.20;0.20;;;16.30;99.90;;;16.78;100.00;100849.09;4893853;29;20243;-73
2023/06/07 05:53:58;;;;;;;0.10;0.10;;;16.30;99.90;;;16.96;100.00;100834.72;4892645;29;20247;-72
2023/06/07 05:56:27;;;;;;;0.15;0.15;;;16.40;99.90;;;17.04;100.00;100807.91;4873272;29;20235;-74
2023/06/07 05:58:55;;;;;;;0.10;0.10;;;16.60;99.90;;;17.20;100.00;100817.50;4892908;29;20271;-74
2023/06/07 06:01:27;;;;;;;0.30;0.30;;;16.70;99.90;;;17.22;100.00;100780.97;4906409;29;20235;-74
2023/06/07 06:03:54;;;;;;;0.20;0.20;;;16.80;99.90;;;17.41;100.00;100794.97;4887146;29;20247;-74
2023/06/07 06:06:23;;;;;;;0.20;0.20;;;16.90;99.90;;;17.49;100.00;100769.03;4892933;29;20235;-73
2023/06/07 06:08:51;;;;;;;0.30;0.30;;;17.00;99.90;;;17.56;100.00;100751.97;4893689;29;20719;-74
2023/06/07 06:11:18;;;;;;;0.30;0.30;;;17.00;99.90;;;17.84;100.00;100772.09;4892982;29;20319;-74
2023/06/07 06:13:48;;;;;;;0.47;0.47;;;17.30;99.90;;;17.83;100.00;100742.69;4894111;29;20601;-74
2023/06/07 06:16:15;;;;;;;0.20;0.20;;;17.30;99.90;;;18.00;100.00;100745.97;4893065;29;20242;-74
2023/06/07 06:18:42;;;;;;;0.40;0.40;;;17.50;99.90;;;17.96;100.00;100724.63;4896400;29;20254;-74
2023/06/07 06:21:09;;;;;;;0.30;0.30;;;17.50;99.90;;;18.16;100.00;100683.25;4913110;29;20239;-74
2023/06/07 06:23:36;;;;;;;0.20;0.20;;;17.60;99.90;;;18.34;100.00;100694.56;4894421;29;20600;-74
2023/06/07 06:26:04;;;;;;;0.22;0.22;;;17.80;99.90;;;18.38;100.00;100686.44;4894582;29;20254;-74
2023/06/07 06:28:31;;;;;;;0.20;0.20;;;17.90;99.90;;;18.41;100.00;100656.91;4894221;29;20246;-74
2023/06/07 06:31:00;;;;;;;0.47;0.43;;;18.00;99.90;;;18.50;100.00;100670.13;4893987;29;20246;-74
2023/06/07 06:33:27;;;;;;;0.20;0.20;;;18.00;99.90;;;18.71;100.00;100651.91;4892088;29;20543;-74
2023/06/07 06:35:54;;;;;;;0.30;0.30;;;18.20;99.90;;;18.72;100.00;100659.00;4894556;29;20239;-75
2023/06/07 06:38:21;;;;;;;0.20;0.20;;;18.30;99.90;;;19.42;100.00;100685.16;4893187;29;20247;-74
2023/06/07 06:40:48;;;;;;;0.43;0.43;;;19.10;99.90;;;19.60;100.00;100642.78;4904001;29;20236;-74
2023/06/07 06:43:15;;;;;;;0.88;0.65;;;19.00;99.90;;;18.91;100.00;100595.19;4891659;29;20235;-74
2023/06/07 06:45:44;;;;;;;0.30;0.30;;;18.70;99.90;;;19.43;100.00;100640.44;4892722;29;20250;-75
2023/06/07 06:48:12;;;;;;;0.32;0.32;;;18.90;99.90;;;19.50;100.00;100605.41;4888087;29;20232;-75
2023/06/07 06:50:39;;;;;;;0.32;0.32;;;19.10;99.90;;;19.49;100.00;100603.63;4895977;29;20239;-75
2023/06/07 06:53:06;;;;;;;0.30;0.30;;;19.20;99.90;;;19.31;100.00;100621.97;4892400;29;20239;-74
2023/06/07 06:55:34;;;;;;;0.30;0.30;;;19.10;99.90;;;19.59;100.00;100624.91;4911199;29;20238;-74
2023/06/07 06:58:01;;;;;;;0.40;0.40;;;19.10;99.90;;;20.04;100.00;100655.06;4894029;29;20234;-74
2023/06/07 07:00:29;;;;;;;0.40;0.40;;;19.40;99.90;;;20.22;100.00;100642.94;4887749;29;20329;-74
2023/06/07 07:02:56;;;;;;;0.20;0.20;;;19.60;99.90;;;20.04;100.00;100591.50;4894343;29;20258;-75
2023/06/07 07:05:23;;;;;;;0.20;0.20;;;19.70;99.90;;;19.97;100.00;100573.81;4895817;29;20249;-75
2023/06/07 07:07:53;;;;;;;0.30;0.30;;;19.70;99.90;;;20.19;100.00;100554.41;4895438;29;20256;-74
2023/06/07 07:10:20;;;;;;;0.73;0.57;;;19.80;99.90;;;20.26;100.00;100538.06;4896437;29;20675;-73
2023/06/07 07:12:48;;;;;;;0.30;0.30;;;19.80;99.90;;;20.37;100.00;100572.69;4893624;29;20243;-72
2023/06/07 07:15:15;;;;;;;0.25;0.25;;;19.90;99.90;;;20.55;100.00;100542.63;4894762;29;20236;-73
2023/06/07 07:17:48;;;;;;;0.20;0.20;;;20.20;99.90;;;20.73;100.00;100543.88;4897935;29;20293;-73
2023/06/07 07:20:17;;;;;;;0.10;0.10;;;20.30;99.90;;;20.93;100.00;100519.06;4904594;29;20255;-73
2023/06/07 07:22:46;;;;;;;0.30;0.30;;;20.50;99.90;;;20.80;100.00;100483.63;4895254;29;20235;-73
2023/06/07 07:25:14;;;;;;;0.20;0.20;;;20.50;99.90;;;21.47;100.00;100504.75;4895416;29;20242;-74
2023/06/07 07:27:42;;;;;;;0.22;0.22;;;21.00;99.90;;;20.82;100.00;100441.47;4893043;29;20321;-74
2023/06/07 07:30:10;;;;;;;0.20;0.20;;;20.80;99.90;;;20.97;100.00;100475.03;4895826;29;20545;-74
2023/06/07 07:32:38;;;;;;;0.15;0.15;;;20.80;99.90;;;22.13;100.00;100501.50;4895049;29;20323;-74
2023/06/07 07:35:05;;;;;;;0.10;0.10;;;21.40;99.90;;;21.72;100.00;100424.91;4894291;29;20243;-74
2023/06/07 07:37:32;;;;;;;0.35;0.22;;;21.10;99.90;;;21.18;100.00;100374.81;4894257;29;20331;-74
2023/06/07 07:40:00;;;;;;;0.10;0.10;;;;;;;21.37;100.00;100405.53;4894269;29;20246;-74
2023/06/07 07:42:28;;;;;;;3.28;1.98;;;;;;;21.37;100.00;100373.25;4893458;29;20247;-73
2023/06/07 07:44:56;;;;;;;0.20;0.20;;;;;;;21.65;100.00;100378.50;4895965;29;20239;-74
2023/06/07 07:47:29;;;;;;;1.23;0.88;;;21.90;99.90;;;22.72;100.00;100421.94;4904887;29;20234;-74
2023/06/07 07:50:00;;;;;;;0.30;0.30;;;;;;;22.55;100.00;100337.28;4904684;29;20333;-75
2023/06/07 07:52:28;;;;;;;0.45;0.45;;;;;;;21.89;100.00;100262.72;4906051;29;20259;-74
2023/06/07 07:54:56;;;;;;;0.10;0.10;;;21.70;99.90;;;22.55;100.00;100321.09;4892439;29;20255;-74
2023/06/07 07:57:23;;;;;;;0.10;0.10;;;22.00;99.90;;;22.67;100.00;100304.41;4896157;29;20238;-74
2023/06/07 07:59:50;;;;;;;0.40;0.40;;;22.30;99.90;;;23.10;100.00;100316.06;4900828;29;20242;-74
2023/06/07 08:02:18;;;;;;;0.10;0.10;;;22.70;99.90;;;22.03;100.00;100196.63;4893894;29;20251;-74
2023/06/07 08:04:45;;;;;;;0.20;0.20;;;22.10;99.90;;;21.93;100.00;100258.97;4894612;29;20255;-74
2023/06/07 08:07:15;;;;;;;0.10;0.10;;;21.70;99.90;;;22.66;100.00;100291.00;4892130;29;20231;-74
2023/06/07 08:09:43;;;;;;;0.15;0.15;;;22.10;99.90;;;22.39;100.00;100230.19;4893370;29;20235;-74
2023/06/07 08:12:10;;;;;;;0.20;0.20;;;22.20;99.90;;;23.49;100.00;100331.41;4893480;29;20246;-74
2023/06/07 08:14:37;;;;;;;0.00;0.00;;;22.80;99.90;;;23.22;100.00;100222.91;4900951;29;20305;-74
2023/06/07 08:17:04;;;;;;;0.15;0.15;;;22.70;99.90;;;22.44;100.00;100107.81;4892253;29;20260;-74
2023/06/07 08:19:32;;;;;;;0.15;0.15;;;22.50;99.30;;;22.48;100.00;100146.25;4893866;29;20235;-74
2023/06/07 08:21:59;;;;;;;0.00;0.00;;;22.10;99.90;;;22.76;100.00;100168.34;4897818;29;20238;-74
2023/06/07 08:24:26;;;;;;;0.20;0.20;;;22.40;99.90;;;22.62;100.00;100179.75;4896153;29;20235;-76
2023/06/07 08:26:53;;;;;;;0.30;0.30;;;22.40;99.90;;;22.69;100.00;100139.91;4895897;29;20597;-76
2023/06/07 08:29:20;;;;;;;0.68;0.68;;;22.20;99.90;;;22.65;100.00;100160.72;4892098;29;20260;-75
2023/06/07 08:31:49;;;;;;;0.10;0.10;;;22.30;99.90;;;23.38;100.00;100209.56;4893250;29;20721;-75
2023/06/07 08:34:16;;;;;;;0.10;0.10;;;22.80;99.90;;;22.99;100.00;100133.13;4891594;29;20238;-74
2023/06/07 08:36:43;;;;;;;0.40;0.40;;;23.10;99.90;;;23.42;100.00;100181.53;4888308;29;20579;-74
2023/06/07 08:39:11;;;;;;;0.20;0.20;;;23.00;99.90;;;23.30;100.00;100146.03;4892257;29;20235;-75
2023/06/07 08:41:39;;;;;;;0.52;0.45;;;23.20;99.90;;;23.50;100.00;100149.63;4892660;29;20238;-75
2023/06/07 08:44:06;;;;;;;0.25;0.25;;;23.30;99.90;;;23.53;100.00;100114.41;4900583;29;20235;-75
2023/06/07 08:46:34;;;;;;;0.20;0.20;;;23.50;99.80;;;23.35;100.00;100086.47;4893056;29;20247;-75
2023/06/07 08:49:02;;;;;;;0.03;0.03;;;23.20;99.60;;;23.28;100.00;100067.00;4893504;29;20775;-75
2023/06/07 08:51:33;;;;;;;0.75;0.75;;;23.40;99.10;;;23.82;100.00;100080.56;4883070;29;20247;-75
2023/06/07 08:54:05;;;;;;;0.22;0.22;;;23.50;99.60;;;24.00;100.00;100040.94;4884835;29;20238;-75
2023/06/07 08:56:33;;;;;;;0.43;0.43;;;23.90;98.20;;;24.15;100.00;100034.72;4905418;29;20235;-74
2023/06/07 08:59:02;;;;;;;0.20;0.20;;;23.90;98.40;;;24.30;100.00;100063.66;4887844;29;20233;-77
2023/06/07 09:01:34;;;;;;;1.17;0.80;;;;;;;24.17;100.00;100035.50;4890332;29;20227;-76
2023/06/07 09:04:02;;;;;;;0.20;0.20;;;;;;;23.69;100.00;99930.97;4888798;29;20250;-76
2023/06/07 09:06:33;;;;;;;1.38;1.08;;;23.60;98.50;;;23.74;100.00;99954.06;4879302;29;20287;-76
2023/06/07 09:09:05;;;;;;;0.20;0.20;;;;;;;23.59;100.00;99917.06;4886401;29;20260;-77
2023/06/07 09:11:33;;;;;;;2.13;1.35;;;23.40;98.50;;;23.30;100.00;99923.94;4867672;29;20239;-75
2023/06/07 09:14:01;;;;;;;0.50;0.20;;;;;;;23.40;100.00;99944.09;4889720;29;20326;-74
2023/06/07 09:16:28;;;;;;;0.35;0.35;;;23.20;98.80;;;24.12;100.00;99949.31;4887928;29;20244;-75
2023/06/07 09:18:56;;;;;;;0.10;0.10;;;23.70;98.30;;;23.77;100.00;99882.81;4886884;29;20239;-75
2023/06/07 09:21:28;;;;;;;0.30;0.30;;;24.00;97.90;;;24.03;100.00;99928.19;4886356;29;20294;-75
2023/06/07 09:23:59;;;;;;;0.75;0.47;;;23.20;97.60;;;23.27;100.00;99838.63;4885750;29;20286;-74
2023/06/07 09:26:38;;;;;;;1.08;0.77;;;23.80;97.30;;;23.87;100.00;99890.34;4889560;29;20246;-75
2023/06/07 09:29:08;;;;;;;0.85;0.85;;;23.80;98.20;;;24.01;100.00;99929.25;4902891;29;20246;-75
2023/06/07 09:31:37;;;;;;;0.77;0.77;;;23.70;99.00;;;23.95;100.00;99946.66;4891254;29;20239;-75
2023/06/07 09:34:26;;;;;;;0.20;0.20;;;23.70;99.10;;;23.81;100.00;99908.72;4888504;29;20243;-75
2023/06/07 09:36:58;;;;;;;0.22;0.22;;;23.90;98.30;;;24.25;100.00;99909.84;4890191;29;20231;-75
2023/06/07 09:39:32;;;;;;;0.60;0.60;;;24.00;98.20;;;24.88;100.00;99919.84;4887553;29;20238;-77
2023/06/07 09:42:00;;;;;;;0.20;0.20;;;24.40;97.40;;;24.44;100.00;99825.06;4886663;29;20754;-75
2023/06/07 09:44:29;;;;;;;2.20;1.13;;;23.80;97.00;;;24.16;100.00;99788.78;4879045;29;20235;-75
2023/06/07 09:46:58;;;;;;;0.50;0.50;;;23.90;97.30;;;24.83;100.00;99893.09;4888938;29;20243;-75
2023/06/07 09:49:34;;;;;;;0.35;0.35;;;24.30;98.40;;;24.98;100.00;99858.00;4885812;29;20280;-75
2023/06/07 09:52:05;;;;;;;0.30;0.30;;;24.40;97.20;;;24.86;100.00;99873.97;4887649;29;20235;-75
2023/06/07 09:54:41;;;;;;;0.10;0.10;;;24.40;98.00;;;25.25;100.00;99924.00;4888780;29;20776;-76
2023/06/07 09:57:24;;;;;;;0.32;0.32;;;24.80;98.90;;;25.18;100.00;99788.22;4887434;29;20238;-75
2023/06/07 10:00:00;;;;;;;0.47;0.47;;;25.20;95.70;;;25.14;100.00;99794.78;4886126;29;20279;-75
2023/06/07 10:02:29;;;;;;;0.63;0.47;;;24.90;96.80;;;24.49;100.00;99712.16;4882140;29;20242;-75
2023/06/07 10:04:57;;;;;;;0.55;0.40;;;24.60;96.60;;;25.21;100.00;99808.78;4885887;29;20238;-75
2023/06/07 10:07:48;;;;;;;0.98;0.95;;;24.70;97.80;;;25.01;100.00;99736.97;4884508;29;20246;-75
2023/06/07 10:10:19;;;;;;;0.30;0.30;;;24.80;96.30;;;25.40;100.00;99786.88;4890076;29;20229;-75
2023/06/07 10:12:48;;;;;;;0.43;0.32;;;25.00;97.40;;;25.69;100.00;99801.31;4875186;29;20325;-75
2023/06/07 10:15:25;;;;;;;0.32;0.32;;;25.30;97.10;;;25.72;100.00;99733.44;4888937;29;20235;-75